sensor_id;sensor_type;location;lat;lon;timestamp;P1;durP1;ratioP1;P2;durP2;ratioP2
3663;SDS011;1848;51.042;7.066;2022-09-20T00:01:05;6.87;;;3.90;;
3663;SDS011;1848;51.042;7.066;2022-09-20T00:03:36;6.03;;;4.00;;
3663;SDS011;1848;51.042;7.066;2022-09-20T00:06:05;7.77;;;4.20;;
3663;SDS011;1848;51.042;7.066;2022-09-20T00:08:33;7.77;;;4.17;;
3663;SDS011;1848;51.042;7.066;2022-09-20T00:11:01;9.40;;;4.33;;
3663;SDS011;1848;51.042;7.066;2022-09-20T00:13:32;9.40;;;4.00;;
3663;SDS011;1848;51.042;7.066;2022-09-20T00:16:03;7.87;;;4.20;;
3663;SDS011;1848;51.042;7.066;2022-09-20T00:18:41;9.80;;;4.37;;
3663;SDS011;1848;51.042;7.066;2022-09-20T00:21:12;9.13;;;4.27;;
3663;SDS011;1848;51.042;7.066;2022-09-20T00:23:41;5.50;;;3.73;;
3663;SDS011;1848;51.042;7.066;2022-09-20T00:26:07;14.50;;;5.00;;
3663;SDS011;1848;51.042;7.066;2022-09-20T00:28:34;9.10;;;4.03;;
3663;SDS011;1848;51.042;7.066;2022-09-20T00:31:00;11.00;;;4.40;;
3663;SDS011;1848;51.042;7.066;2022-09-20T00:33:26;10.93;;;4.70;;
3663;SDS011;1848;51.042;7.066;2022-09-20T00:36:11;8.13;;;4.40;;
3663;SDS011;1848;51.042;7.066;2022-09-20T00:38:38;11.37;;;4.27;;
3663;SDS011;1848;51.042;7.066;2022-09-20T00:41:04;8.97;;;4.33;;
3663;SDS011;1848;51.042;7.066;2022-09-20T00:43:38;7.20;;;4.10;;
3663;SDS011;1848;51.042;7.066;2022-09-20T00:46:13;11.80;;;5.20;;
3663;SDS011;1848;51.042;7.066;2022-09-20T00:48:47;7.03;;;3.83;;
3663;SDS011;1848;51.042;7.066;2022-09-20T00:51:17;14.87;;;4.80;;
3663;SDS011;1848;51.042;7.066;2022-09-20T00:53:48;10.80;;;4.70;;
3663;SDS011;1848;51.042;7.066;2022-09-20T00:56:18;11.80;;;4.03;;
3663;SDS011;1848;51.042;7.066;2022-09-20T00:58:55;5.93;;;3.80;;
3663;SDS011;1848;51.042;7.066;2022-09-20T01:01:25;6.90;;;4.03;;
3663;SDS011;1848;51.042;7.066;2022-09-20T01:03:51;10.17;;;4.10;;
3663;SDS011;1848;51.042;7.066;2022-09-20T01:06:19;6.97;;;3.80;;
3663;SDS011;1848;51.042;7.066;2022-09-20T01:08:46;10.70;;;3.90;;
3663;SDS011;1848;51.042;7.066;2022-09-20T01:11:16;9.40;;;4.10;;
3663;SDS011;1848;51.042;7.066;2022-09-20T01:13:43;7.50;;;4.17;;
3663;SDS011;1848;51.042;7.066;2022-09-20T01:16:09;8.53;;;4.20;;
3663;SDS011;1848;51.042;7.066;2022-09-20T01:18:37;6.73;;;4.00;;
3663;SDS011;1848;51.042;7.066;2022-09-20T01:21:06;9.83;;;4.30;;
3663;SDS011;1848;51.042;7.066;2022-09-20T01:26:23;10.60;;;4.60;;
3663;SDS011;1848;51.042;7.066;2022-09-20T01:29:00;8.10;;;4.10;;
3663;SDS011;1848;51.042;7.066;2022-09-20T01:31:52;10.40;;;3.90;;
3663;SDS011;1848;51.042;7.066;2022-09-20T01:34:34;12.80;;;4.33;;
3663;SDS011;1848;51.042;7.066;2022-09-20T01:37:09;7.43;;;4.00;;
3663;SDS011;1848;51.042;7.066;2022-09-20T01:42:31;6.47;;;4.20;;
3663;SDS011;1848;51.042;7.066;2022-09-20T01:47:43;14.77;;;4.53;;
3663;SDS011;1848;51.042;7.066;2022-09-20T01:56:02;10.13;;;4.77;;
3663;SDS011;1848;51.042;7.066;2022-09-20T02:12:45;6.63;;;4.10;;
3663;SDS011;1848;51.042;7.066;2022-09-20T02:18:32;10.03;;;4.40;;
3663;SDS011;1848;51.042;7.066;2022-09-20T02:26:41;5.20;;;4.30;;
3663;SDS011;1848;51.042;7.066;2022-09-20T02:29:31;8.77;;;4.90;;
3663;SDS011;1848;51.042;7.066;2022-09-20T02:32:11;13.70;;;4.83;;
3663;SDS011;1848;51.042;7.066;2022-09-20T02:38:16;7.50;;;4.50;;
3663;SDS011;1848;51.042;7.066;2022-09-20T02:43:49;6.07;;;4.20;;
3663;SDS011;1848;51.042;7.066;2022-09-20T02:46:28;7.80;;;4.03;;
3663;SDS011;1848;51.042;7.066;2022-09-20T02:49:18;4.93;;;4.13;;
3663;SDS011;1848;51.042;7.066;2022-09-20T02:51:57;7.63;;;4.20;;
3663;SDS011;1848;51.042;7.066;2022-09-20T02:57:54;10.10;;;5.07;;
3663;SDS011;1848;51.042;7.066;2022-09-20T03:00:13;5.83;;;4.83;;
3663;SDS011;1848;51.042;7.066;2022-09-20T03:05:59;6.80;;;4.10;;
3663;SDS011;1848;51.042;7.066;2022-09-20T03:09:00;8.33;;;4.00;;
3663;SDS011;1848;51.042;7.066;2022-09-20T03:14:19;5.50;;;4.03;;
3663;SDS011;1848;51.042;7.066;2022-09-20T03:22:45;6.50;;;4.73;;
3663;SDS011;1848;51.042;7.066;2022-09-20T03:33:56;6.37;;;4.37;;
3663;SDS011;1848;51.042;7.066;2022-09-20T03:39:23;10.80;;;4.70;;
3663;SDS011;1848;51.042;7.066;2022-09-20T03:50:22;10.10;;;4.50;;
3663;SDS011;1848;51.042;7.066;2022-09-20T03:56:50;10.40;;;4.93;;
3663;SDS011;1848;51.042;7.066;2022-09-20T04:04:56;10.20;;;5.40;;
3663;SDS011;1848;51.042;7.066;2022-09-20T04:18:27;9.63;;;5.20;;
3663;SDS011;1848;51.042;7.066;2022-09-20T04:21:36;9.37;;;4.30;;
3663;SDS011;1848;51.042;7.066;2022-09-20T04:26:48;9.60;;;5.50;;
3663;SDS011;1848;51.042;7.066;2022-09-20T04:29:35;12.77;;;5.30;;
3663;SDS011;1848;51.042;7.066;2022-09-20T04:32:15;7.53;;;5.00;;
3663;SDS011;1848;51.042;7.066;2022-09-20T04:38:12;16.60;;;4.73;;
3663;SDS011;1848;51.042;7.066;2022-09-20T04:52:30;10.47;;;5.47;;
3663;SDS011;1848;51.042;7.066;2022-09-20T04:55:15;9.50;;;5.03;;
3663;SDS011;1848;51.042;7.066;2022-09-20T05:01:18;9.80;;;5.20;;
3663;SDS011;1848;51.042;7.066;2022-09-20T05:04:23;6.40;;;4.67;;
3663;SDS011;1848;51.042;7.066;2022-09-20T05:13:08;7.73;;;5.17;;
3663;SDS011;1848;51.042;7.066;2022-09-20T05:15:54;8.17;;;4.47;;
3663;SDS011;1848;51.042;7.066;2022-09-20T05:19:10;9.63;;;4.80;;
3663;SDS011;1848;51.042;7.066;2022-09-20T05:27:49;10.67;;;5.20;;
3663;SDS011;1848;51.042;7.066;2022-09-20T05:33:25;11.43;;;5.57;;
3663;SDS011;1848;51.042;7.066;2022-09-20T05:38:49;11.27;;;5.40;;
3663;SDS011;1848;51.042;7.066;2022-09-20T05:41:39;15.63;;;5.80;;
3663;SDS011;1848;51.042;7.066;2022-09-20T05:44:56;8.20;;;5.37;;
3663;SDS011;1848;51.042;7.066;2022-09-20T05:47:17;15.70;;;5.10;;
3663;SDS011;1848;51.042;7.066;2022-09-20T05:52:43;10.93;;;5.17;;
3663;SDS011;1848;51.042;7.066;2022-09-20T05:55:39;15.33;;;6.10;;
3663;SDS011;1848;51.042;7.066;2022-09-20T06:01:38;10.23;;;5.40;;
3663;SDS011;1848;51.042;7.066;2022-09-20T06:04:18;6.40;;;5.07;;
3663;SDS011;1848;51.042;7.066;2022-09-20T06:09:41;8.13;;;5.37;;
3663;SDS011;1848;51.042;7.066;2022-09-20T06:12:23;10.93;;;5.80;;
3663;SDS011;1848;51.042;7.066;2022-09-20T06:17:55;11.07;;;5.77;;
3663;SDS011;1848;51.042;7.066;2022-09-20T06:20:29;9.93;;;5.30;;
3663;SDS011;1848;51.042;7.066;2022-09-20T06:23:00;9.97;;;5.13;;
3663;SDS011;1848;51.042;7.066;2022-09-20T06:28:34;9.60;;;5.80;;
3663;SDS011;1848;51.042;7.066;2022-09-20T06:31:05;10.50;;;5.90;;
3663;SDS011;1848;51.042;7.066;2022-09-20T06:33:38;13.93;;;5.60;;
3663;SDS011;1848;51.042;7.066;2022-09-20T06:36:11;16.27;;;7.33;;
3663;SDS011;1848;51.042;7.066;2022-09-20T06:42:17;12.97;;;7.80;;
3663;SDS011;1848;51.042;7.066;2022-09-20T06:44:43;14.63;;;7.43;;
3663;SDS011;1848;51.042;7.066;2022-09-20T06:47:10;15.93;;;7.00;;
3663;SDS011;1848;51.042;7.066;2022-09-20T06:49:37;10.47;;;6.60;;
3663;SDS011;1848;51.042;7.066;2022-09-20T06:52:06;12.83;;;7.47;;
3663;SDS011;1848;51.042;7.066;2022-09-20T06:54:43;12.97;;;7.10;;
3663;SDS011;1848;51.042;7.066;2022-09-20T06:57:12;10.40;;;6.27;;
3663;SDS011;1848;51.042;7.066;2022-09-20T06:59:40;13.40;;;6.77;;
3663;SDS011;1848;51.042;7.066;2022-09-20T07:02:07;15.73;;;7.50;;
3663;SDS011;1848;51.042;7.066;2022-09-20T07:04:33;15.77;;;9.13;;
3663;SDS011;1848;51.042;7.066;2022-09-20T07:07:00;17.17;;;7.40;;
3663;SDS011;1848;51.042;7.066;2022-09-20T07:09:33;17.13;;;8.60;;
3663;SDS011;1848;51.042;7.066;2022-09-20T07:12:00;23.10;;;8.70;;
3663;SDS011;1848;51.042;7.066;2022-09-20T07:14:27;19.27;;;12.60;;
3663;SDS011;1848;51.042;7.066;2022-09-20T07:16:53;22.30;;;11.77;;
3663;SDS011;1848;51.042;7.066;2022-09-20T07:19:20;14.67;;;8.80;;
3663;SDS011;1848;51.042;7.066;2022-09-20T07:21:48;12.87;;;7.70;;
3663;SDS011;1848;51.042;7.066;2022-09-20T07:24:14;17.57;;;8.27;;
3663;SDS011;1848;51.042;7.066;2022-09-20T07:26:52;13.47;;;8.23;;
3663;SDS011;1848;51.042;7.066;2022-09-20T07:29:23;17.40;;;8.10;;
3663;SDS011;1848;51.042;7.066;2022-09-20T07:31:50;14.97;;;7.70;;
3663;SDS011;1848;51.042;7.066;2022-09-20T07:34:17;16.60;;;9.20;;
3663;SDS011;1848;51.042;7.066;2022-09-20T07:36:46;17.80;;;8.20;;
3663;SDS011;1848;51.042;7.066;2022-09-20T07:39:13;15.73;;;8.37;;
3663;SDS011;1848;51.042;7.066;2022-09-20T07:41:39;16.87;;;7.70;;
3663;SDS011;1848;51.042;7.066;2022-09-20T07:44:05;20.00;;;8.80;;
3663;SDS011;1848;51.042;7.066;2022-09-20T07:46:53;21.77;;;9.00;;
3663;SDS011;1848;51.042;7.066;2022-09-20T07:49:21;13.73;;;8.70;;
3663;SDS011;1848;51.042;7.066;2022-09-20T07:51:48;14.20;;;7.87;;
3663;SDS011;1848;51.042;7.066;2022-09-20T07:54:15;18.07;;;13.33;;
3663;SDS011;1848;51.042;7.066;2022-09-20T07:56:42;17.30;;;9.27;;
3663;SDS011;1848;51.042;7.066;2022-09-20T07:59:09;17.17;;;7.33;;
3663;SDS011;1848;51.042;7.066;2022-09-20T08:01:37;14.53;;;8.10;;
3663;SDS011;1848;51.042;7.066;2022-09-20T08:04:04;12.40;;;7.20;;
3663;SDS011;1848;51.042;7.066;2022-09-20T08:06:34;11.67;;;7.70;;
3663;SDS011;1848;51.042;7.066;2022-09-20T08:09:05;12.77;;;7.73;;
3663;SDS011;1848;51.042;7.066;2022-09-20T08:11:36;20.50;;;7.40;;
3663;SDS011;1848;51.042;7.066;2022-09-20T08:14:04;12.27;;;6.87;;
3663;SDS011;1848;51.042;7.066;2022-09-20T08:16:36;10.43;;;7.53;;
3663;SDS011;1848;51.042;7.066;2022-09-20T08:19:08;11.97;;;7.03;;
3663;SDS011;1848;51.042;7.066;2022-09-20T08:21:38;11.87;;;5.97;;
3663;SDS011;1848;51.042;7.066;2022-09-20T08:24:06;18.10;;;6.83;;
3663;SDS011;1848;51.042;7.066;2022-09-20T08:26:32;15.77;;;6.10;;
3663;SDS011;1848;51.042;7.066;2022-09-20T08:29:00;12.93;;;6.33;;
3663;SDS011;1848;51.042;7.066;2022-09-20T08:31:28;9.27;;;6.00;;
3663;SDS011;1848;51.042;7.066;2022-09-20T08:33:59;11.73;;;6.63;;
3663;SDS011;1848;51.042;7.066;2022-09-20T08:36:30;11.20;;;5.30;;
3663;SDS011;1848;51.042;7.066;2022-09-20T08:39:02;14.87;;;5.17;;
3663;SDS011;1848;51.042;7.066;2022-09-20T08:41:54;12.20;;;5.10;;
3663;SDS011;1848;51.042;7.066;2022-09-20T08:44:50;8.00;;;3.67;;
3663;SDS011;1848;51.042;7.066;2022-09-20T08:47:26;9.13;;;4.30;;
3663;SDS011;1848;51.042;7.066;2022-09-20T08:49:56;12.27;;;3.73;;
3663;SDS011;1848;51.042;7.066;2022-09-20T08:52:33;10.83;;;3.30;;
3663;SDS011;1848;51.042;7.066;2022-09-20T08:55:12;13.20;;;3.60;;
3663;SDS011;1848;51.042;7.066;2022-09-20T08:57:42;7.23;;;2.53;;
3663;SDS011;1848;51.042;7.066;2022-09-20T09:00:13;12.00;;;3.40;;
3663;SDS011;1848;51.042;7.066;2022-09-20T09:02:45;9.40;;;4.27;;
3663;SDS011;1848;51.042;7.066;2022-09-20T09:05:19;8.60;;;2.80;;
3663;SDS011;1848;51.042;7.066;2022-09-20T09:07:57;11.13;;;3.20;;
3663;SDS011;1848;51.042;7.066;2022-09-20T09:10:44;6.80;;;3.50;;
3663;SDS011;1848;51.042;7.066;2022-09-20T09:13:24;12.10;;;3.00;;
3663;SDS011;1848;51.042;7.066;2022-09-20T09:16:14;17.23;;;3.37;;
3663;SDS011;1848;51.042;7.066;2022-09-20T09:18:49;8.47;;;2.90;;
3663;SDS011;1848;51.042;7.066;2022-09-20T09:21:21;8.93;;;2.57;;
3663;SDS011;1848;51.042;7.066;2022-09-20T09:23:54;7.50;;;2.93;;
3663;SDS011;1848;51.042;7.066;2022-09-20T09:26:28;9.83;;;2.73;;
3663;SDS011;1848;51.042;7.066;2022-09-20T09:29:14;8.43;;;2.97;;
3663;SDS011;1848;51.042;7.066;2022-09-20T09:31:46;6.00;;;2.70;;
3663;SDS011;1848;51.042;7.066;2022-09-20T09:34:27;6.47;;;2.33;;
3663;SDS011;1848;51.042;7.066;2022-09-20T09:36:56;8.10;;;2.60;;
3663;SDS011;1848;51.042;7.066;2022-09-20T09:41:51;6.80;;;2.47;;
3663;SDS011;1848;51.042;7.066;2022-09-20T09:44:22;8.40;;;2.47;;
3663;SDS011;1848;51.042;7.066;2022-09-20T09:46:49;5.90;;;2.60;;
3663;SDS011;1848;51.042;7.066;2022-09-20T09:49:17;12.10;;;2.93;;
3663;SDS011;1848;51.042;7.066;2022-09-20T09:54:27;6.70;;;2.70;;
3663;SDS011;1848;51.042;7.066;2022-09-20T09:57:18;10.43;;;2.33;;
3663;SDS011;1848;51.042;7.066;2022-09-20T10:00:03;5.73;;;2.63;;
3663;SDS011;1848;51.042;7.066;2022-09-20T10:02:52;9.73;;;2.53;;
3663;SDS011;1848;51.042;7.066;2022-09-20T10:09:13;7.43;;;2.80;;
3663;SDS011;1848;51.042;7.066;2022-09-20T10:11:29;9.90;;;4.17;;
3663;SDS011;1848;51.042;7.066;2022-09-20T10:14:05;6.63;;;2.80;;
3663;SDS011;1848;51.042;7.066;2022-09-20T10:16:52;11.27;;;3.37;;
3663;SDS011;1848;51.042;7.066;2022-09-20T10:19:55;9.93;;;3.60;;
3663;SDS011;1848;51.042;7.066;2022-09-20T10:25:56;11.53;;;3.67;;
3663;SDS011;1848;51.042;7.066;2022-09-20T10:31:22;10.57;;;2.90;;
3663;SDS011;1848;51.042;7.066;2022-09-20T10:37:05;9.90;;;2.37;;
3663;SDS011;1848;51.042;7.066;2022-09-20T10:39:44;10.90;;;3.90;;
3663;SDS011;1848;51.042;7.066;2022-09-20T10:45:28;14.27;;;2.90;;
3663;SDS011;1848;51.042;7.066;2022-09-20T10:48:25;9.30;;;3.10;;
3663;SDS011;1848;51.042;7.066;2022-09-20T10:53:41;7.53;;;2.83;;
3663;SDS011;1848;51.042;7.066;2022-09-20T10:56:27;10.20;;;3.17;;
3663;SDS011;1848;51.042;7.066;2022-09-20T10:59:08;7.23;;;2.83;;
3663;SDS011;1848;51.042;7.066;2022-09-20T11:12:58;9.10;;;2.87;;
3663;SDS011;1848;51.042;7.066;2022-09-20T11:21:00;14.13;;;3.27;;
3663;SDS011;1848;51.042;7.066;2022-09-20T11:23:44;7.20;;;2.87;;
3663;SDS011;1848;51.042;7.066;2022-09-20T11:29:02;7.23;;;2.40;;
3663;SDS011;1848;51.042;7.066;2022-09-20T11:31:45;8.80;;;2.63;;
3663;SDS011;1848;51.042;7.066;2022-09-20T11:34:19;8.23;;;2.37;;
3663;SDS011;1848;51.042;7.066;2022-09-20T11:36:56;10.40;;;2.93;;
3663;SDS011;1848;51.042;7.066;2022-09-20T11:39:33;10.77;;;2.60;;
3663;SDS011;1848;51.042;7.066;2022-09-20T11:42:01;9.97;;;2.57;;
3663;SDS011;1848;51.042;7.066;2022-09-20T11:44:39;9.47;;;2.60;;
3663;SDS011;1848;51.042;7.066;2022-09-20T11:47:12;11.07;;;2.30;;
3663;SDS011;1848;51.042;7.066;2022-09-20T11:58:42;8.43;;;2.10;;
3663;SDS011;1848;51.042;7.066;2022-09-20T12:01:13;6.47;;;2.47;;
3663;SDS011;1848;51.042;7.066;2022-09-20T12:03:58;8.00;;;1.90;;
3663;SDS011;1848;51.042;7.066;2022-09-20T12:07:04;6.90;;;2.30;;
3663;SDS011;1848;51.042;7.066;2022-09-20T12:09:53;7.50;;;2.40;;
3663;SDS011;1848;51.042;7.066;2022-09-20T12:15:38;10.13;;;2.60;;
3663;SDS011;1848;51.042;7.066;2022-09-20T12:23:45;4.90;;;2.23;;
3663;SDS011;1848;51.042;7.066;2022-09-20T12:28:33;6.87;;;3.03;;
3663;SDS011;1848;51.042;7.066;2022-09-20T12:36:37;6.30;;;2.40;;
3663;SDS011;1848;51.042;7.066;2022-09-20T12:57:57;4.80;;;1.73;;
3663;SDS011;1848;51.042;7.066;2022-09-20T13:00:38;4.00;;;1.10;;
3663;SDS011;1848;51.042;7.066;2022-09-20T13:05:42;5.43;;;1.37;;
3663;SDS011;1848;51.042;7.066;2022-09-20T13:08:17;2.83;;;1.40;;
3663;SDS011;1848;51.042;7.066;2022-09-20T13:11:00;5.60;;;1.50;;
3663;SDS011;1848;51.042;7.066;2022-09-20T13:19:42;3.73;;;1.50;;
3663;SDS011;1848;51.042;7.066;2022-09-20T13:25:15;3.17;;;1.30;;
3663;SDS011;1848;51.042;7.066;2022-09-20T13:30:26;4.27;;;2.00;;
3663;SDS011;1848;51.042;7.066;2022-09-20T13:33:12;4.43;;;1.57;;
3663;SDS011;1848;51.042;7.066;2022-09-20T13:35:40;5.13;;;1.70;;
3663;SDS011;1848;51.042;7.066;2022-09-20T13:38:11;4.57;;;2.03;;
3663;SDS011;1848;51.042;7.066;2022-09-20T13:40:45;4.77;;;1.47;;
3663;SDS011;1848;51.042;7.066;2022-09-20T13:45:51;4.33;;;1.77;;
3663;SDS011;1848;51.042;7.066;2022-09-20T13:48:25;3.73;;;1.60;;
3663;SDS011;1848;51.042;7.066;2022-09-20T13:50:53;2.60;;;1.37;;
3663;SDS011;1848;51.042;7.066;2022-09-20T13:53:21;2.90;;;1.73;;
3663;SDS011;1848;51.042;7.066;2022-09-20T13:56:26;4.23;;;1.73;;
3663;SDS011;1848;51.042;7.066;2022-09-20T13:58:55;8.80;;;2.20;;
3663;SDS011;1848;51.042;7.066;2022-09-20T14:01:28;2.77;;;1.67;;
3663;SDS011;1848;51.042;7.066;2022-09-20T14:04:00;2.40;;;1.40;;
3663;SDS011;1848;51.042;7.066;2022-09-20T14:06:33;3.43;;;2.17;;
3663;SDS011;1848;51.042;7.066;2022-09-20T14:09:03;7.93;;;2.50;;
3663;SDS011;1848;51.042;7.066;2022-09-20T14:11:36;7.93;;;2.20;;
3663;SDS011;1848;51.042;7.066;2022-09-20T14:14:04;4.87;;;2.20;;
3663;SDS011;1848;51.042;7.066;2022-09-20T14:16:42;6.83;;;2.20;;
3663;SDS011;1848;51.042;7.066;2022-09-20T14:19:12;6.63;;;2.10;;
3663;SDS011;1848;51.042;7.066;2022-09-20T14:21:41;5.30;;;1.70;;
3663;SDS011;1848;51.042;7.066;2022-09-20T14:26:41;4.40;;;1.50;;
3663;SDS011;1848;51.042;7.066;2022-09-20T14:29:28;5.30;;;1.80;;
3663;SDS011;1848;51.042;7.066;2022-09-20T14:34:35;6.77;;;1.80;;
3663;SDS011;1848;51.042;7.066;2022-09-20T14:37:11;9.93;;;2.40;;
3663;SDS011;1848;51.042;7.066;2022-09-20T14:39:45;3.67;;;1.77;;
3663;SDS011;1848;51.042;7.066;2022-09-20T14:45:01;5.60;;;1.60;;
3663;SDS011;1848;51.042;7.066;2022-09-20T14:47:50;4.13;;;1.63;;
3663;SDS011;1848;51.042;7.066;2022-09-20T14:50:24;3.00;;;2.00;;
3663;SDS011;1848;51.042;7.066;2022-09-20T14:55:56;5.13;;;1.93;;
3663;SDS011;1848;51.042;7.066;2022-09-20T14:58:58;5.13;;;2.07;;
3663;SDS011;1848;51.042;7.066;2022-09-20T15:01:30;4.07;;;2.23;;
3663;SDS011;1848;51.042;7.066;2022-09-20T15:03:57;7.90;;;1.90;;
3663;SDS011;1848;51.042;7.066;2022-09-20T15:06:24;3.63;;;2.30;;
3663;SDS011;1848;51.042;7.066;2022-09-20T15:08:51;4.00;;;1.90;;
3663;SDS011;1848;51.042;7.066;2022-09-20T15:11:17;5.67;;;2.20;;
3663;SDS011;1848;51.042;7.066;2022-09-20T15:13:44;4.77;;;2.40;;
3663;SDS011;1848;51.042;7.066;2022-09-20T15:16:11;4.90;;;2.43;;
3663;SDS011;1848;51.042;7.066;2022-09-20T15:18:40;5.20;;;2.00;;
3663;SDS011;1848;51.042;7.066;2022-09-20T15:21:08;4.33;;;1.80;;
3663;SDS011;1848;51.042;7.066;2022-09-20T15:23:36;3.77;;;1.80;;
3663;SDS011;1848;51.042;7.066;2022-09-20T15:26:04;8.33;;;2.20;;
3663;SDS011;1848;51.042;7.066;2022-09-20T15:28:32;3.47;;;1.80;;
3663;SDS011;1848;51.042;7.066;2022-09-20T15:30:59;5.13;;;2.00;;
3663;SDS011;1848;51.042;7.066;2022-09-20T15:33:27;4.20;;;1.80;;
3663;SDS011;1848;51.042;7.066;2022-09-20T15:35:56;3.50;;;1.60;;
3663;SDS011;1848;51.042;7.066;2022-09-20T15:38:23;4.00;;;2.13;;
3663;SDS011;1848;51.042;7.066;2022-09-20T15:40:52;7.17;;;2.83;;
3663;SDS011;1848;51.042;7.066;2022-09-20T15:43:20;5.90;;;2.20;;
3663;SDS011;1848;51.042;7.066;2022-09-20T15:45:50;5.17;;;1.87;;
3663;SDS011;1848;51.042;7.066;2022-09-20T15:48:21;5.10;;;2.00;;
3663;SDS011;1848;51.042;7.066;2022-09-20T15:50:57;4.03;;;1.57;;
3663;SDS011;1848;51.042;7.066;2022-09-20T15:53:32;3.93;;;2.03;;
3663;SDS011;1848;51.042;7.066;2022-09-20T15:56:04;6.63;;;2.23;;
3663;SDS011;1848;51.042;7.066;2022-09-20T15:58:42;4.73;;;2.47;;
3663;SDS011;1848;51.042;7.066;2022-09-20T16:01:13;5.83;;;3.57;;
3663;SDS011;1848;51.042;7.066;2022-09-20T16:03:43;5.20;;;2.87;;
3663;SDS011;1848;51.042;7.066;2022-09-20T16:06:11;6.70;;;3.93;;
3663;SDS011;1848;51.042;7.066;2022-09-20T16:08:39;6.40;;;3.43;;
3663;SDS011;1848;51.042;7.066;2022-09-20T16:11:08;9.37;;;3.57;;
3663;SDS011;1848;51.042;7.066;2022-09-20T16:13:37;4.73;;;2.67;;
3663;SDS011;1848;51.042;7.066;2022-09-20T16:16:04;4.73;;;2.03;;
3663;SDS011;1848;51.042;7.066;2022-09-20T16:18:34;7.57;;;3.00;;
3663;SDS011;1848;51.042;7.066;2022-09-20T16:21:20;4.57;;;2.80;;
3663;SDS011;1848;51.042;7.066;2022-09-20T16:23:49;2.87;;;2.57;;
3663;SDS011;1848;51.042;7.066;2022-09-20T16:26:20;4.93;;;2.93;;
3663;SDS011;1848;51.042;7.066;2022-09-20T16:28:48;3.83;;;2.30;;
3663;SDS011;1848;51.042;7.066;2022-09-20T16:31:29;6.10;;;3.33;;
3663;SDS011;1848;51.042;7.066;2022-09-20T16:34:26;5.50;;;2.73;;
3663;SDS011;1848;51.042;7.066;2022-09-20T16:36:56;6.30;;;2.23;;
3663;SDS011;1848;51.042;7.066;2022-09-20T16:39:27;4.27;;;2.30;;
3663;SDS011;1848;51.042;7.066;2022-09-20T16:42:00;4.07;;;2.50;;
3663;SDS011;1848;51.042;7.066;2022-09-20T16:44:31;5.37;;;2.53;;
3663;SDS011;1848;51.042;7.066;2022-09-20T16:46:59;5.27;;;2.10;;
3663;SDS011;1848;51.042;7.066;2022-09-20T16:49:26;4.07;;;2.33;;
3663;SDS011;1848;51.042;7.066;2022-09-20T16:51:52;4.80;;;2.10;;
3663;SDS011;1848;51.042;7.066;2022-09-20T16:54:19;3.67;;;2.10;;
3663;SDS011;1848;51.042;7.066;2022-09-20T16:56:47;6.37;;;2.23;;
3663;SDS011;1848;51.042;7.066;2022-09-20T16:59:15;6.93;;;2.97;;
3663;SDS011;1848;51.042;7.066;2022-09-20T17:01:43;3.30;;;2.70;;
3663;SDS011;1848;51.042;7.066;2022-09-20T17:04:10;9.87;;;3.90;;
3663;SDS011;1848;51.042;7.066;2022-09-20T17:06:39;4.67;;;2.37;;
3663;SDS011;1848;51.042;7.066;2022-09-20T17:09:08;5.00;;;3.33;;
3663;SDS011;1848;51.042;7.066;2022-09-20T17:11:36;5.40;;;3.57;;
3663;SDS011;1848;51.042;7.066;2022-09-20T17:14:05;9.00;;;3.47;;
3663;SDS011;1848;51.042;7.066;2022-09-20T17:16:36;8.67;;;2.83;;
3663;SDS011;1848;51.042;7.066;2022-09-20T17:19:13;6.00;;;2.90;;
3663;SDS011;1848;51.042;7.066;2022-09-20T17:21:42;8.60;;;2.80;;
3663;SDS011;1848;51.042;7.066;2022-09-20T17:24:11;6.63;;;3.67;;
3663;SDS011;1848;51.042;7.066;2022-09-20T17:26:39;6.77;;;4.17;;
3663;SDS011;1848;51.042;7.066;2022-09-20T17:29:10;7.13;;;4.10;;
3663;SDS011;1848;51.042;7.066;2022-09-20T17:31:46;6.90;;;3.00;;
3663;SDS011;1848;51.042;7.066;2022-09-20T17:34:20;8.20;;;3.20;;
3663;SDS011;1848;51.042;7.066;2022-09-20T17:36:47;6.00;;;4.17;;
3663;SDS011;1848;51.042;7.066;2022-09-20T17:39:14;8.00;;;4.87;;
3663;SDS011;1848;51.042;7.066;2022-09-20T17:41:42;13.83;;;5.17;;
3663;SDS011;1848;51.042;7.066;2022-09-20T17:44:10;8.67;;;5.10;;
3663;SDS011;1848;51.042;7.066;2022-09-20T17:46:38;7.80;;;4.00;;
3663;SDS011;1848;51.042;7.066;2022-09-20T17:49:06;9.33;;;3.73;;
3663;SDS011;1848;51.042;7.066;2022-09-20T17:51:39;6.10;;;3.20;;
3663;SDS011;1848;51.042;7.066;2022-09-20T17:54:10;5.30;;;2.60;;
3663;SDS011;1848;51.042;7.066;2022-09-20T17:56:39;5.90;;;2.80;;
3663;SDS011;1848;51.042;7.066;2022-09-20T17:59:07;6.87;;;3.10;;
3663;SDS011;1848;51.042;7.066;2022-09-20T18:01:35;10.20;;;3.63;;
3663;SDS011;1848;51.042;7.066;2022-09-20T18:04:03;7.13;;;3.40;;
3663;SDS011;1848;51.042;7.066;2022-09-20T18:06:32;5.80;;;3.23;;
3663;SDS011;1848;51.042;7.066;2022-09-20T18:09:01;7.37;;;2.60;;
3663;SDS011;1848;51.042;7.066;2022-09-20T18:11:31;7.80;;;3.00;;
3663;SDS011;1848;51.042;7.066;2022-09-20T18:14:00;7.03;;;3.17;;
3663;SDS011;1848;51.042;7.066;2022-09-20T18:16:28;7.47;;;3.73;;
3663;SDS011;1848;51.042;7.066;2022-09-20T18:19:00;13.63;;;3.63;;
3663;SDS011;1848;51.042;7.066;2022-09-20T18:21:27;6.00;;;3.30;;
3663;SDS011;1848;51.042;7.066;2022-09-20T18:23:55;4.30;;;3.00;;
3663;SDS011;1848;51.042;7.066;2022-09-20T18:26:23;5.03;;;3.10;;
3663;SDS011;1848;51.042;7.066;2022-09-20T18:28:52;7.17;;;3.73;;
3663;SDS011;1848;51.042;7.066;2022-09-20T18:31:20;5.37;;;3.40;;
3663;SDS011;1848;51.042;7.066;2022-09-20T18:33:50;4.60;;;3.00;;
3663;SDS011;1848;51.042;7.066;2022-09-20T18:36:17;14.73;;;3.10;;
3663;SDS011;1848;51.042;7.066;2022-09-20T18:38:44;4.47;;;3.23;;
3663;SDS011;1848;51.042;7.066;2022-09-20T18:41:10;7.57;;;3.97;;
3663;SDS011;1848;51.042;7.066;2022-09-20T18:43:39;8.87;;;3.63;;
3663;SDS011;1848;51.042;7.066;2022-09-20T18:46:09;5.20;;;3.40;;
3663;SDS011;1848;51.042;7.066;2022-09-20T18:48:36;6.50;;;3.90;;
3663;SDS011;1848;51.042;7.066;2022-09-20T18:51:06;5.17;;;3.30;;
3663;SDS011;1848;51.042;7.066;2022-09-20T18:53:35;4.80;;;3.20;;
3663;SDS011;1848;51.042;7.066;2022-09-20T18:56:11;10.43;;;4.20;;
3663;SDS011;1848;51.042;7.066;2022-09-20T18:58:53;5.80;;;3.20;;
3663;SDS011;1848;51.042;7.066;2022-09-20T19:09:56;3.97;;;2.87;;
3663;SDS011;1848;51.042;7.066;2022-09-20T19:12:38;7.27;;;4.40;;
3663;SDS011;1848;51.042;7.066;2022-09-20T19:15:24;9.63;;;5.70;;
3663;SDS011;1848;51.042;7.066;2022-09-20T19:26:29;18.50;;;11.27;;
3663;SDS011;1848;51.042;7.066;2022-09-20T19:28:57;22.40;;;11.30;;
3663;SDS011;1848;51.042;7.066;2022-09-20T19:31:29;17.80;;;11.50;;
3663;SDS011;1848;51.042;7.066;2022-09-20T19:33:58;16.03;;;11.10;;
3663;SDS011;1848;51.042;7.066;2022-09-20T19:50:49;14.30;;;9.33;;
3663;SDS011;1848;51.042;7.066;2022-09-20T19:53:18;12.90;;;9.00;;
3663;SDS011;1848;51.042;7.066;2022-09-20T19:58:36;11.50;;;7.30;;
3663;SDS011;1848;51.042;7.066;2022-09-20T20:01:08;13.00;;;5.50;;
3663;SDS011;1848;51.042;7.066;2022-09-20T20:03:35;10.23;;;4.70;;
3663;SDS011;1848;51.042;7.066;2022-09-20T20:08:57;7.13;;;4.20;;
3663;SDS011;1848;51.042;7.066;2022-09-20T20:11:35;7.27;;;4.57;;
3663;SDS011;1848;51.042;7.066;2022-09-20T20:14:15;7.17;;;5.07;;
3663;SDS011;1848;51.042;7.066;2022-09-20T20:19:47;7.43;;;5.00;;
3663;SDS011;1848;51.042;7.066;2022-09-20T20:22:22;7.77;;;4.90;;
3663;SDS011;1848;51.042;7.066;2022-09-20T20:25:03;8.90;;;5.00;;
3663;SDS011;1848;51.042;7.066;2022-09-20T20:27:30;8.10;;;5.97;;
3663;SDS011;1848;51.042;7.066;2022-09-20T20:29:57;12.53;;;5.73;;
3663;SDS011;1848;51.042;7.066;2022-09-20T20:32:24;10.60;;;6.87;;
3663;SDS011;1848;51.042;7.066;2022-09-20T20:34:50;9.33;;;5.37;;
3663;SDS011;1848;51.042;7.066;2022-09-20T20:37:17;9.43;;;5.87;;
3663;SDS011;1848;51.042;7.066;2022-09-20T20:39:43;11.30;;;5.90;;
3663;SDS011;1848;51.042;7.066;2022-09-20T20:42:10;8.70;;;6.13;;
3663;SDS011;1848;51.042;7.066;2022-09-20T20:44:38;11.30;;;6.17;;
3663;SDS011;1848;51.042;7.066;2022-09-20T20:47:04;10.00;;;7.30;;
3663;SDS011;1848;51.042;7.066;2022-09-20T20:49:31;10.27;;;6.83;;
3663;SDS011;1848;51.042;7.066;2022-09-20T20:51:58;8.43;;;5.80;;
3663;SDS011;1848;51.042;7.066;2022-09-20T20:54:30;9.83;;;6.17;;
3663;SDS011;1848;51.042;7.066;2022-09-20T20:56:57;6.67;;;5.97;;
3663;SDS011;1848;51.042;7.066;2022-09-20T20:59:24;7.90;;;5.47;;